首页
METAR-TAF:

METAR-TAF

机场 :

纳闽机场

纳闽, 马来西亚

纬度: 05-18N, 经度: 115-15E, 海拔: 30米

当前天气观测

该预报发布于53分钟前的23:00 UTC
风速5节,风向东北,在之间变化
温度 27°C
湿度 89%
气压 1011 hPa
能见度10公里或以上
少量云层高于1500英尺

METAR: WBKL 252300Z 04005KT 360V100 9999 FEW015 27/25 Q1011

时间: 07:53 (23:53 UTC)

预报

该预报发布于53分钟前的23:00 UTC
预报有效从26日的 00点(UTC)到 27日的 00点(UTC)
风速6节,风向北转东北
能见度10公里或以上
少量云层高于1400英尺

TAF: WBKL 252300Z 2600/2700 03006KT 9999 FEW014

超过4000个机场的气象观测和天气预报(METAR&TAF报告)。

可查询的气象台以黄色和红色小点在地图上表示。

将鼠标移到小点上方,可查看气象台名称。

然后点击查看天气观测和预报。

如需切换地图:点击带黑十字的绿色按钮放大地图;点击带横线的绿色按钮缩小地图;或者点击绿色箭头查看邻近地区的地图。


METAR-TAF: